Time;durP1;ratioP1;P1;durP2;ratioP2;P2;SDS_P1;SDS_P2;PMS_P1;PMS_P2;Temp;Humidity;BMP_temperature;BMP_pressure;BME280_temperature;BME280_humidity;BME280_pressure;Samples;Min_cycle;Max_cycle;Signal;HPM_P1;HPM_P2
2022/03/20 00:00:10;;;;;;;8.93;4.47;;;4.90;99.90;;;;;;5097958;28;20112;-74
2022/03/20 00:02:36;;;;;;;7.28;4.05;;;4.90;99.90;;;;;;5114703;28;20039;-74
2022/03/20 00:05:03;;;;;;;10.52;4.70;;;4.90;99.90;;;;;;5115623;28;20043;-74
2022/03/20 00:07:33;;;;;;;7.18;3.92;;;4.90;99.90;;;;;;5113847;28;20043;-74
2022/03/20 00:10:00;;;;;;;5.88;4.10;;;4.90;99.90;;;;;;5096539;28;20036;-74
2022/03/20 00:12:27;;;;;;;9.48;4.53;;;4.90;99.90;;;;;;5115766;28;20082;-74
2022/03/20 00:14:53;;;;;;;8.57;4.97;;;4.90;99.90;;;;;;5115142;28;20084;-74
2022/03/20 00:17:20;;;;;;;8.13;5.13;;;4.90;99.90;;;;;;5096198;28;20432;-74
2022/03/20 00:19:46;;;;;;;7.75;4.93;;;4.80;99.90;;;;;;5114190;28;20055;-74
2022/03/20 00:22:14;;;;;;;9.30;4.35;;;4.80;99.90;;;;;;5115333;28;20052;-73
2022/03/20 00:24:42;;;;;;;11.93;4.43;;;4.80;99.90;;;;;;5113858;28;20083;-74
2022/03/20 00:27:10;;;;;;;7.20;4.38;;;4.80;99.90;;;;;;5096961;28;20039;-74
2022/03/20 00:29:36;;;;;;;8.40;4.28;;;4.80;99.90;;;;;;5114249;28;20101;-74
2022/03/20 00:32:02;;;;;;;9.80;4.90;;;4.80;99.90;;;;;;5096689;28;20047;-74
2022/03/20 00:34:28;;;;;;;7.22;4.40;;;4.80;99.90;;;;;;5114977;28;20122;-74
2022/03/20 00:36:54;;;;;;;6.80;4.15;;;4.80;99.90;;;;;;5113575;28;20476;-74
2022/03/20 00:39:20;;;;;;;8.35;4.63;;;4.80;99.90;;;;;;5094666;28;20056;-74
2022/03/20 00:41:46;;;;;;;10.70;5.03;;;4.70;99.90;;;;;;5096874;28;20041;-74
2022/03/20 00:44:12;;;;;;;8.38;4.30;;;4.70;99.90;;;;;;5114237;28;20383;-74
2022/03/20 00:46:38;;;;;;;9.68;4.68;;;4.70;99.90;;;;;;5095866;28;20046;-74
2022/03/20 00:49:05;;;;;;;9.43;5.03;;;4.70;99.90;;;;;;5114883;28;20047;-74
2022/03/20 00:51:32;;;;;;;9.80;5.40;;;4.60;99.90;;;;;;5113072;28;20071;-74
2022/03/20 00:53:57;;;;;;;7.10;4.40;;;4.60;99.90;;;;;;5113463;28;20043;-74
2022/03/20 00:56:23;;;;;;;11.20;4.78;;;4.70;99.90;;;;;;5114220;28;20047;-74
2022/03/20 00:58:49;;;;;;;7.75;4.45;;;4.70;99.90;;;;;;5113172;28;20043;-74
2022/03/20 01:01:15;;;;;;;9.63;5.55;;;4.60;99.90;;;;;;5114336;28;20040;-74
2022/03/20 01:03:41;;;;;;;10.32;4.50;;;4.60;99.90;;;;;;5114572;28;20054;-74
2022/03/20 01:06:08;;;;;;;11.05;5.30;;;4.60;99.90;;;;;;5113757;28;20039;-74
2022/03/20 01:08:35;;;;;;;8.40;4.90;;;4.60;99.90;;;;;;5113305;28;20044;-74
2022/03/20 01:11:02;;;;;;;8.48;5.15;;;4.50;99.90;;;;;;5096241;28;20486;-74
2022/03/20 01:13:29;;;;;;;12.40;5.28;;;4.50;99.90;;;;;;5095138;28;20549;-74
2022/03/20 01:15:55;;;;;;;12.18;6.43;;;4.50;99.90;;;;;;5114579;28;20364;-74
2022/03/20 01:18:22;;;;;;;10.60;4.65;;;4.50;99.90;;;;;;5114194;28;20130;-74
2022/03/20 01:20:48;;;;;;;11.48;5.35;;;4.40;99.90;;;;;;5094221;28;20126;-74
2022/03/20 01:23:13;;;;;;;11.60;5.50;;;4.40;99.90;;;;;;5114151;28;20072;-74
2022/03/20 01:25:40;;;;;;;10.07;5.20;;;4.40;99.90;;;;;;5096288;28;20452;-74
2022/03/20 01:28:06;;;;;;;11.75;5.82;;;4.40;99.90;;;;;;5113159;28;20040;-74
2022/03/20 01:30:32;;;;;;;12.32;5.10;;;4.40;99.90;;;;;;5113890;28;20484;-74
2022/03/20 01:32:58;;;;;;;10.95;4.72;;;4.40;99.90;;;;;;5112689;28;20051;-74
2022/03/20 01:35:24;;;;;;;13.27;5.30;;;4.30;99.90;;;;;;5097286;28;20048;-74
2022/03/20 01:37:50;;;;;;;12.00;5.80;;;4.30;99.90;;;;;;5086578;28;20066;-74
2022/03/20 01:40:16;;;;;;;10.88;5.20;;;4.30;99.90;;;;;;5113099;28;20035;-74
2022/03/20 01:42:43;;;;;;;10.35;5.13;;;4.20;99.90;;;;;;5095195;28;20050;-74
2022/03/20 01:45:21;;;;;;;9.52;5.32;;;4.20;99.90;;;;;;5113664;28;20082;-74
2022/03/20 01:47:49;;;;;;;11.75;5.30;;;4.20;99.90;;;;;;5113061;28;20043;-74
2022/03/20 01:50:17;;;;;;;14.35;5.65;;;4.20;99.90;;;;;;5103794;28;20055;-75
2022/03/20 01:52:47;;;;;;;9.93;5.70;;;4.20;99.90;;;;;;5113350;28;20075;-75
2022/03/20 01:55:15;;;;;;;15.52;7.10;;;4.10;99.90;;;;;;5094524;28;20112;-74
2022/03/20 01:57:42;;;;;;;12.23;6.05;;;4.10;99.90;;;;;;5114058;28;20398;-74
2022/03/20 02:00:11;;;;;;;11.63;5.68;;;4.00;99.90;;;;;;5113471;28;20036;-74
2022/03/20 02:02:36;;;;;;;10.23;5.78;;;4.10;99.90;;;;;;5105915;28;20076;-74
2022/03/20 02:05:04;;;;;;;12.02;5.60;;;4.10;99.90;;;;;;5099493;28;20071;-75
2022/03/20 02:07:34;;;;;;;11.77;5.70;;;4.00;99.90;;;;;;5113290;28;20448;-74
2022/03/20 02:10:01;;;;;;;12.75;5.50;;;4.00;99.90;;;;;;5113029;28;20383;-74
2022/03/20 02:12:28;;;;;;;15.23;6.47;;;4.00;99.90;;;;;;5113307;28;20483;-74
2022/03/20 02:14:55;;;;;;;14.07;7.18;;;4.00;99.90;;;;;;5113701;28;20387;-74
2022/03/20 02:17:21;;;;;;;14.05;5.55;;;4.00;99.90;;;;;;5111401;28;20043;-75
2022/03/20 02:19:46;;;;;;;11.32;6.40;;;4.00;99.90;;;;;;5093328;28;20036;-74
2022/03/20 02:22:12;;;;;;;11.02;6.35;;;4.00;99.90;;;;;;5108917;28;20035;-74
2022/03/20 02:24:44;;;;;;;14.35;6.53;;;4.00;99.90;;;;;;5093904;28;20071;-74
2022/03/20 02:27:15;;;;;;;10.63;6.18;;;3.90;99.90;;;;;;5112584;28;20051;-74
2022/03/20 02:29:48;;;;;;;14.38;7.10;;;3.90;99.90;;;;;;5112858;28;20432;-74
2022/03/20 02:32:17;;;;;;;13.63;6.40;;;3.90;99.90;;;;;;5095283;28;20153;-75
2022/03/20 02:34:47;;;;;;;14.98;7.63;;;3.90;99.90;;;;;;5113078;28;20043;-74
2022/03/20 02:37:14;;;;;;;15.48;6.65;;;3.90;99.90;;;;;;5112688;28;20047;-74
2022/03/20 02:39:40;;;;;;;11.73;7.53;;;3.90;99.90;;;;;;5113371;28;20080;-74
2022/03/20 02:42:07;;;;;;;13.20;6.40;;;3.90;99.90;;;;;;5084860;28;20165;-74
2022/03/20 02:44:56;;;;;;;12.70;6.95;;;3.90;99.90;;;;;;5096069;28;20081;-74
2022/03/20 02:47:24;;;;;;;15.00;7.25;;;3.90;99.90;;;;;;5111721;28;20560;-74
2022/03/20 02:49:54;;;;;;;12.20;6.80;;;3.80;99.90;;;;;;5117043;28;20052;-74
2022/03/20 02:52:28;;;;;;;12.90;7.25;;;3.80;99.90;;;;;;5116137;28;20043;-74
2022/03/20 02:54:55;;;;;;;12.63;7.07;;;3.80;99.90;;;;;;5098924;28;20121;-74
2022/03/20 02:57:20;;;;;;;17.48;7.97;;;3.80;99.90;;;;;;5097496;28;20040;-74
2022/03/20 02:59:46;;;;;;;18.50;8.25;;;3.80;99.90;;;;;;5116936;28;20048;-74
2022/03/20 03:02:13;;;;;;;12.75;7.50;;;3.70;99.90;;;;;;5109137;28;20120;-74
2022/03/20 03:04:41;;;;;;;15.18;7.70;;;3.70;99.90;;;;;;5097648;28;20483;-74
2022/03/20 03:07:08;;;;;;;15.38;9.18;;;3.70;99.90;;;;;;5097966;28;20047;-74
2022/03/20 03:12:18;;;;;;;16.88;8.82;;;3.60;99.90;;;;;;5115351;28;20043;-74
2022/03/20 03:17:28;;;;;;;15.25;8.32;;;3.50;99.90;;;;;;5116854;28;20039;-74
2022/03/20 03:19:57;;;;;;;14.23;7.30;;;3.40;99.90;;;;;;5115497;28;20043;-75
2022/03/20 03:22:27;;;;;;;14.65;7.70;;;3.40;99.90;;;;;;5116318;28;20457;-74
2022/03/20 03:24:55;;;;;;;14.63;8.30;;;3.40;99.90;;;;;;5116125;28;20093;-74
2022/03/20 03:27:21;;;;;;;12.70;7.95;;;3.40;99.90;;;;;;5103953;28;20067;-74
2022/03/20 03:29:47;;;;;;;16.65;8.35;;;3.40;99.90;;;;;;5116029;28;20495;-74
2022/03/20 03:32:13;;;;;;;16.55;8.57;;;3.40;99.90;;;;;;5098767;28;20040;-74
2022/03/20 03:37:23;;;;;;;15.48;9.30;;;3.40;99.90;;;;;;5116467;28;20078;-74
2022/03/20 03:39:49;;;;;;;17.80;8.85;;;3.40;99.90;;;;;;5115045;28;20047;-74
2022/03/20 03:42:15;;;;;;;15.05;8.80;;;3.30;99.90;;;;;;5116359;28;20418;-75
2022/03/20 03:44:41;;;;;;;15.23;8.82;;;3.30;99.90;;;;;;5097702;28;20046;-74
2022/03/20 03:47:07;;;;;;;18.95;9.15;;;3.30;99.90;;;;;;5113590;28;20035;-74
2022/03/20 03:49:33;;;;;;;16.27;8.93;;;3.30;99.90;;;;;;5097211;28;20411;-75
2022/03/20 03:52:00;;;;;;;21.35;9.52;;;3.30;99.90;;;;;;5116168;28;20051;-75
2022/03/20 03:54:26;;;;;;;17.70;9.43;;;3.30;99.90;;;;;;5106883;28;20540;-75
2022/03/20 03:56:52;;;;;;;18.27;9.13;;;3.30;99.90;;;;;;5113763;28;20497;-74
2022/03/20 03:59:18;;;;;;;17.85;9.60;;;3.30;99.90;;;;;;5102091;28;20040;-74
2022/03/20 04:01:44;;;;;;;18.85;9.88;;;3.30;99.90;;;;;;5095402;28;20079;-75
2022/03/20 04:04:10;;;;;;;16.60;8.77;;;3.30;99.90;;;;;;5108541;28;20398;-75
2022/03/20 04:06:36;;;;;;;14.88;9.70;;;3.30;99.90;;;;;;5115623;28;20114;-75
2022/03/20 04:09:03;;;;;;;15.13;8.95;;;3.30;99.90;;;;;;5102998;28;20040;-74
2022/03/20 04:11:28;;;;;;;15.60;9.75;;;3.30;99.90;;;;;;5095225;28;20472;-74
2022/03/20 04:13:54;;;;;;;22.83;10.48;;;3.20;99.90;;;;;;5096145;28;20040;-74
2022/03/20 04:16:20;;;;;;;16.00;9.90;;;3.20;99.90;;;;;;5097630;28;20505;-75
2022/03/20 04:18:45;;;;;;;16.95;9.85;;;3.20;99.90;;;;;;5100727;28;20134;-74
2022/03/20 04:21:11;;;;;;;14.85;9.68;;;3.20;99.90;;;;;;5074498;28;20040;-74
2022/03/20 04:23:46;;;;;;;18.98;9.73;;;3.20;99.90;;;;;;5068100;28;20377;-74
2022/03/20 04:26:15;;;;;;;19.30;10.15;;;3.20;99.90;;;;;;5099554;28;20048;-74
2022/03/20 04:28:44;;;;;;;21.42;9.57;;;3.20;99.90;;;;;;5094278;28;20082;-74
2022/03/20 04:31:15;;;;;;;18.65;9.82;;;3.10;99.90;;;;;;5086982;28;20047;-75
2022/03/20 04:33:42;;;;;;;17.25;9.20;;;3.10;99.90;;;;;;5115054;28;20501;-74
2022/03/20 04:36:09;;;;;;;24.55;10.02;;;3.10;99.90;;;;;;5095880;28;20044;-74
2022/03/20 04:38:36;;;;;;;16.48;9.73;;;3.10;99.90;;;;;;5094431;28;20043;-74
2022/03/20 04:41:02;;;;;;;22.38;9.98;;;3.10;99.90;;;;;;5073442;28;20052;-74
2022/03/20 04:43:28;;;;;;;20.17;10.00;;;3.10;99.90;;;;;;5091482;28;20048;-74
2022/03/20 04:45:54;;;;;;;18.20;10.05;;;3.00;99.90;;;;;;5100282;28;20491;-75
2022/03/20 04:59:17;;;;;;;19.70;9.93;;;2.90;99.90;;;;;;5114932;28;20047;-75
2022/03/20 05:01:43;;;;;;;17.20;9.77;;;2.90;99.90;;;;;;5114284;28;20039;-74
2022/03/20 05:04:09;;;;;;;19.70;10.52;;;2.80;99.90;;;;;;5113845;28;20051;-74
2022/03/20 05:06:35;;;;;;;20.95;11.23;;;2.80;99.90;;;;;;5113642;28;20122;-74
2022/03/20 05:14:29;;;;;;;17.87;10.13;;;2.80;99.90;;;;;;5114380;28;20047;-74
2022/03/20 05:16:55;;;;;;;18.08;11.13;;;2.80;99.90;;;;;;5113541;28;20380;-74
2022/03/20 05:19:21;;;;;;;18.70;11.32;;;2.80;99.90;;;;;;5113551;28;20039;-73
2022/03/20 05:21:47;;;;;;;16.95;11.13;;;2.70;99.90;;;;;;5113545;28;20035;-74
2022/03/20 05:24:13;;;;;;;21.60;11.02;;;2.80;99.90;;;;;;5102599;28;20051;-74
2022/03/20 05:26:40;;;;;;;17.42;10.30;;;2.70;99.90;;;;;;5113590;28;20051;-74
2022/03/20 05:29:05;;;;;;;24.33;10.98;;;2.70;99.90;;;;;;5114012;28;20085;-75
2022/03/20 05:31:32;;;;;;;19.60;10.75;;;2.70;99.90;;;;;;5114271;28;20043;-74
2022/03/20 05:33:59;;;;;;;21.80;11.85;;;2.70;99.90;;;;;;5113001;28;20557;-74
2022/03/20 05:36:28;;;;;;;21.80;11.80;;;2.70;99.90;;;;;;5095887;28;20047;-75
2022/03/20 05:38:59;;;;;;;19.02;11.35;;;2.70;99.90;;;;;;5113201;28;20054;-74
2022/03/20 05:41:46;;;;;;;20.75;11.40;;;2.70;99.90;;;;;;5100092;28;20060;-76
2022/03/20 05:44:12;;;;;;;20.42;11.48;;;2.70;99.90;;;;;;5059505;28;20118;-75
2022/03/20 05:46:40;;;;;;;18.45;11.00;;;2.60;99.90;;;;;;5089149;28;20134;-75
2022/03/20 05:49:06;;;;;;;18.70;10.35;;;2.70;99.90;;;;;;5092358;28;20496;-75
2022/03/20 05:51:34;;;;;;;24.15;12.45;;;2.70;99.90;;;;;;5092073;28;20048;-74
2022/03/20 05:54:01;;;;;;;20.73;11.43;;;2.60;99.90;;;;;;5082022;28;20048;-75
2022/03/20 05:59:11;;;;;;;21.08;11.55;;;2.70;99.90;;;;;;5093487;28;20080;-74
2022/03/20 06:01:37;;;;;;;18.88;10.98;;;2.70;99.90;;;;;;5091507;28;20076;-74
2022/03/20 06:04:03;;;;;;;19.55;11.93;;;2.70;99.90;;;;;;5092641;28;20484;-73
2022/03/20 06:06:32;;;;;;;21.90;11.63;;;2.70;99.90;;;;;;5092259;28;20127;-73
2022/03/20 06:08:58;;;;;;;20.40;13.13;;;2.70;99.90;;;;;;5087737;28;20090;-74
2022/03/20 06:11:24;;;;;;;26.23;11.95;;;2.70;99.90;;;;;;5072314;28;20048;-73
2022/03/20 06:13:50;;;;;;;18.40;11.48;;;2.70;99.90;;;;;;5084140;28;20426;-74
2022/03/20 06:16:17;;;;;;;16.80;11.85;;;2.70;99.90;;;;;;5092105;28;20051;-74
2022/03/20 06:18:44;;;;;;;18.65;11.55;;;2.70;99.90;;;;;;5096306;28;20087;-74
2022/03/20 06:21:11;;;;;;;17.08;11.70;;;2.70;99.90;;;;;;5093542;28;20494;-74
2022/03/20 06:23:37;;;;;;;23.95;13.23;;;2.70;99.90;;;;;;5075776;28;20514;-73
2022/03/20 06:26:04;;;;;;;19.10;12.00;;;2.70;99.90;;;;;;5077165;28;20070;-74
2022/03/20 06:28:30;;;;;;;18.15;12.23;;;2.70;99.90;;;;;;5076022;28;20087;-74
2022/03/20 06:30:56;;;;;;;19.60;12.85;;;2.70;99.90;;;;;;5076003;28;20076;-74
2022/03/20 06:33:21;;;;;;;20.40;11.75;;;2.80;99.90;;;;;;5077632;28;20120;-73
2022/03/20 06:35:47;;;;;;;25.25;12.18;;;2.80;99.90;;;;;;5095198;28;20058;-74
2022/03/20 06:38:13;;;;;;;19.92;12.25;;;2.80;99.90;;;;;;5097213;28;20077;-74
2022/03/20 06:40:39;;;;;;;20.20;12.63;;;2.90;99.90;;;;;;5096583;28;20044;-74
2022/03/20 06:43:06;;;;;;;24.10;13.77;;;2.90;99.90;;;;;;5086647;28;20399;-74
2022/03/20 06:45:32;;;;;;;19.48;11.95;;;2.90;99.90;;;;;;5076661;28;20483;-74
2022/03/20 06:48:00;;;;;;;25.20;14.13;;;3.00;99.90;;;;;;5084972;28;20040;-73
2022/03/20 06:50:25;;;;;;;16.80;11.98;;;3.00;99.90;;;;;;5115470;28;20054;-74
2022/03/20 06:52:51;;;;;;;20.42;12.57;;;3.00;99.90;;;;;;5116317;28;20036;-74
2022/03/20 06:55:18;;;;;;;21.17;12.15;;;3.10;99.90;;;;;;5116932;28;20044;-72
2022/03/20 06:57:46;;;;;;;24.08;13.20;;;3.10;99.90;;;;;;5115880;28;20046;-74
2022/03/20 07:00:13;;;;;;;21.05;11.93;;;3.20;99.90;;;;;;5098836;28;20494;-73
2022/03/20 07:02:39;;;;;;;21.70;13.85;;;3.20;99.90;;;;;;5116812;28;20387;-73
2022/03/20 07:05:06;;;;;;;22.58;13.50;;;3.30;99.90;;;;;;5116203;28;20039;-73
2022/03/20 07:07:34;;;;;;;23.88;12.55;;;3.30;99.90;;;;;;5115693;28;20044;-74
2022/03/20 07:10:00;;;;;;;23.33;13.98;;;3.30;99.90;;;;;;5096624;28;20040;-72
2022/03/20 07:12:26;;;;;;;21.65;12.98;;;3.40;99.90;;;;;;5101234;28;20120;-74
2022/03/20 07:14:53;;;;;;;19.02;12.77;;;3.40;99.90;;;;;;5116849;28;20123;-73
2022/03/20 07:17:20;;;;;;;21.85;13.15;;;3.40;99.90;;;;;;5116454;28;20050;-72
2022/03/20 07:19:46;;;;;;;21.88;12.48;;;3.40;99.90;;;;;;5115997;28;20054;-73
2022/03/20 07:22:14;;;;;;;22.55;13.85;;;3.40;99.90;;;;;;5116531;28;20043;-73
2022/03/20 07:24:41;;;;;;;22.17;13.70;;;3.40;99.90;;;;;;5093160;28;20123;-72
2022/03/20 07:29:52;;;;;;;21.85;13.15;;;3.50;99.90;;;;;;5115751;28;20471;-73
2022/03/20 07:32:18;;;;;;;22.23;13.88;;;3.50;99.90;;;;;;5115500;28;20122;-73
2022/03/20 07:34:45;;;;;;;21.50;13.88;;;3.60;99.90;;;;;;5116315;28;20039;-73
2022/03/20 07:37:16;;;;;;;24.80;13.77;;;3.70;99.90;;;;;;5116499;28;20036;-72
2022/03/20 07:39:43;;;;;;;25.63;14.73;;;3.70;99.90;;;;;;5115289;28;20050;-73
2022/03/20 07:42:08;;;;;;;19.90;13.13;;;3.80;99.90;;;;;;5097288;28;20522;-73
2022/03/20 07:44:36;;;;;;;21.75;13.90;;;3.90;99.90;;;;;;5115882;28;20039;-73
2022/03/20 07:47:03;;;;;;;22.77;13.68;;;4.00;99.90;;;;;;5096844;28;20050;-73
2022/03/20 07:49:29;;;;;;;21.90;12.75;;;4.10;99.90;;;;;;5094719;28;20125;-73
2022/03/20 07:51:57;;;;;;;20.30;13.52;;;4.10;99.90;;;;;;5096029;28;20098;-73
2022/03/20 07:54:27;;;;;;;25.95;13.63;;;4.20;99.90;;;;;;5094693;28;20048;-73
2022/03/20 07:56:52;;;;;;;22.48;13.48;;;4.30;99.90;;;;;;5106276;28;20071;-73
2022/03/20 07:59:18;;;;;;;24.45;13.55;;;4.30;99.90;;;;;;5095705;28;20067;-74
2022/03/20 08:01:44;;;;;;;15.45;10.55;;;4.40;99.90;;;;;;5106205;28;20112;-74
2022/03/20 08:04:10;;;;;;;26.17;13.93;;;4.40;99.90;;;;;;5115812;28;20440;-73
2022/03/20 08:06:36;;;;;;;25.42;14.77;;;4.50;99.90;;;;;;5103912;28;20047;-74
2022/03/20 08:09:02;;;;;;;23.13;14.38;;;4.60;99.90;;;;;;5094763;28;20097;-74
2022/03/20 08:11:29;;;;;;;18.63;12.57;;;4.60;99.90;;;;;;5105149;28;20511;-74
2022/03/20 08:13:57;;;;;;;20.55;14.15;;;4.60;99.90;;;;;;5114887;28;20491;-73
2022/03/20 08:16:26;;;;;;;18.55;13.88;;;4.60;99.90;;;;;;5077174;28;20032;-73
2022/03/20 08:18:56;;;;;;;20.25;13.85;;;4.60;99.90;;;;;;5094883;28;20040;-73
2022/03/20 08:21:22;;;;;;;20.77;13.50;;;4.70;99.90;;;;;;5073192;28;20434;-73
2022/03/20 08:23:49;;;;;;;25.02;15.02;;;4.80;99.90;;;;;;5100770;28;20085;-73
2022/03/20 08:26:15;;;;;;;27.52;15.75;;;4.80;99.90;;;;;;5104425;28;20395;-73
2022/03/20 08:28:47;;;;;;;22.27;13.70;;;4.90;99.90;;;;;;5093885;28;20048;-73
2022/03/20 08:31:14;;;;;;;22.50;13.30;;;5.00;99.90;;;;;;5095985;28;20036;-73
2022/03/20 08:33:40;;;;;;;26.92;14.20;;;5.00;99.90;;;;;;5115261;28;20044;-72
2022/03/20 08:36:07;;;;;;;24.65;14.95;;;5.10;99.90;;;;;;5095195;28;20047;-74
2022/03/20 08:38:33;;;;;;;26.45;14.20;;;5.10;99.90;;;;;;5076511;28;20505;-73
2022/03/20 08:41:00;;;;;;;22.52;14.43;;;5.20;99.90;;;;;;5075016;28;20043;-74
2022/03/20 08:43:26;;;;;;;24.00;14.95;;;5.30;99.90;;;;;;5093678;28;20487;-72
2022/03/20 08:45:52;;;;;;;21.35;14.60;;;5.40;99.90;;;;;;5098855;28;20044;-73
2022/03/20 08:48:19;;;;;;;27.73;15.25;;;5.50;99.90;;;;;;5095965;28;20495;-73
2022/03/20 08:50:49;;;;;;;25.05;15.52;;;5.50;99.90;;;;;;5113894;28;20047;-73
2022/03/20 08:53:17;;;;;;;21.40;15.02;;;5.60;99.90;;;;;;5114976;28;20054;-73
2022/03/20 08:55:44;;;;;;;21.58;15.30;;;5.70;99.90;;;;;;5114461;28;20101;-72
2022/03/20 08:58:10;;;;;;;22.40;14.45;;;5.70;99.90;;;;;;5113749;28;20054;-73
2022/03/20 09:00:36;;;;;;;21.33;14.88;;;5.70;99.90;;;;;;5095811;28;20052;-73
2022/03/20 09:03:03;;;;;;;21.67;14.88;;;5.60;99.90;;;;;;5113706;28;20503;-73
2022/03/20 09:05:29;;;;;;;23.85;15.55;;;5.60;99.90;;;;;;5114220;28;20043;-73
2022/03/20 09:07:57;;;;;;;22.48;14.57;;;5.70;99.90;;;;;;5096265;28;20146;-73
2022/03/20 09:10:25;;;;;;;21.27;15.13;;;5.80;99.90;;;;;;5113372;28;20047;-73
2022/03/20 09:12:55;;;;;;;24.38;15.27;;;5.90;99.90;;;;;;5114557;28;20073;-73
2022/03/20 09:15:22;;;;;;;24.70;14.43;;;6.10;99.90;;;;;;5113532;28;20046;-73
2022/03/20 09:20:34;;;;;;;21.92;15.45;;;6.30;99.90;;;;;;5110188;28;20043;-73
2022/03/20 09:23:00;;;;;;;23.05;15.20;;;6.40;99.90;;;;;;5114319;28;20101;-73
2022/03/20 09:25:26;;;;;;;23.95;16.30;;;6.50;99.90;;;;;;5094917;28;20399;-72
2022/03/20 09:27:52;;;;;;;25.58;15.95;;;6.60;99.90;;;;;;5096090;28;20039;-73
2022/03/20 09:30:19;;;;;;;28.58;16.05;;;6.70;99.90;;;;;;5113855;28;20047;-74
2022/03/20 09:32:45;;;;;;;24.83;16.13;;;6.80;99.90;;;;;;5113729;28;20047;-73
2022/03/20 09:35:12;;;;;;;23.70;15.15;;;6.90;99.90;;;;;;5106778;28;20048;-73
2022/03/20 09:37:40;;;;;;;27.08;16.10;;;7.10;99.90;;;;;;5096007;28;20097;-73
2022/03/20 09:40:06;;;;;;;28.23;15.85;;;7.10;99.90;;;;;;5094680;28;20054;-73
2022/03/20 09:42:34;;;;;;;23.50;15.07;;;7.20;99.90;;;;;;5113918;28;20044;-73
2022/03/20 09:45:00;;;;;;;27.95;16.77;;;7.30;99.90;;;;;;5113831;28;20086;-73
2022/03/20 09:47:26;;;;;;;23.35;15.80;;;7.30;99.90;;;;;;5095100;28;20123;-72
2022/03/20 09:49:56;;;;;;;22.48;14.98;;;7.30;99.60;;;;;;5112769;28;20142;-72
2022/03/20 09:52:23;;;;;;;22.95;14.63;;;7.30;99.30;;;;;;5112741;28;20126;-72
2022/03/20 09:54:49;;;;;;;23.83;15.68;;;7.30;99.30;;;;;;5113546;28;20090;-72
2022/03/20 09:57:15;;;;;;;24.70;15.90;;;7.40;99.60;;;;;;5114040;28;20085;-72
2022/03/20 09:59:41;;;;;;;22.25;15.02;;;7.50;99.30;;;;;;5112814;28;20118;-72
2022/03/20 10:02:09;;;;;;;25.75;15.13;;;7.60;99.00;;;;;;5112877;28;20123;-73
2022/03/20 10:04:59;;;;;;;21.35;15.55;;;7.70;99.00;;;;;;5112695;28;20040;-73
2022/03/20 10:07:30;;;;;;;22.35;15.18;;;7.80;97.00;;;;;;5094432;28;20040;-73
2022/03/20 10:10:23;;;;;;;26.15;16.98;;;7.90;97.70;;;;;;5113924;28;20046;-73
2022/03/20 10:12:53;;;;;;;25.25;16.90;;;8.00;96.70;;;;;;5072118;28;20056;-73
2022/03/20 10:15:43;;;;;;;24.27;16.35;;;8.10;97.30;;;;;;5057621;28;20049;-73
2022/03/20 10:18:18;;;;;;;24.67;16.33;;;8.30;96.00;;;;;;5108864;28;20051;-73
2022/03/20 10:20:52;;;;;;;28.17;16.67;;;8.40;96.10;;;;;;5094532;28;20047;-73
2022/03/20 10:23:39;;;;;;;23.52;16.65;;;8.50;95.30;;;;;;5094396;28;20506;-73
2022/03/20 10:26:06;;;;;;;27.60;16.83;;;8.60;94.70;;;;;;5113482;28;20048;-73
2022/03/20 10:28:41;;;;;;;30.45;16.52;;;8.70;95.00;;;;;;5094517;28;20048;-73
2022/03/20 10:31:08;;;;;;;;;;;8.80;94.10;;;;;;5114176;28;20043;-73
2022/03/20 10:33:38;;;;;;;24.58;15.63;;;8.90;92.50;;;;;;5094544;28;19931;-74
2022/03/20 10:36:11;;;;;;;24.27;15.88;;;8.90;93.40;;;;;;5094523;28;20051;-72
2022/03/20 10:38:37;;;;;;;26.17;17.02;;;8.80;91.80;;;;;;5106114;28;20550;-73
2022/03/20 10:41:20;;;;;;;25.40;16.80;;;9.00;92.50;;;;;;5107492;28;20445;-73
2022/03/20 10:43:47;;;;;;;27.35;17.48;;;9.10;92.10;;;;;;5112311;28;20051;-72
2022/03/20 10:46:29;;;;;;;25.85;17.58;;;9.20;91.60;;;;;;5095375;28;20079;-73
2022/03/20 10:48:57;;;;;;;25.83;16.55;;;9.20;90.60;;;;;;5112194;28;20105;-72
2022/03/20 10:51:37;;;;;;;26.48;18.42;;;9.30;91.10;;;;;;5094954;28;20113;-73
2022/03/20 10:54:07;;;;;;;25.92;15.68;;;9.30;89.10;;;;;;5112185;28;20490;-73
2022/03/20 10:56:35;;;;;;;30.20;18.85;;;9.40;88.30;;;;;;5094402;28;20043;-73
2022/03/20 10:59:12;;;;;;;27.80;17.88;;;9.40;88.70;;;;;;5094788;28;20453;-73
2022/03/20 11:01:40;;;;;;;29.45;18.83;;;9.50;87.10;;;;;;5095071;28;20067;-73
2022/03/20 11:04:07;;;;;;;24.98;17.30;;;9.60;88.40;;;;;;5095076;28;20031;-73
2022/03/20 11:06:34;;;;;;;29.10;18.08;;;9.70;88.40;;;;;;5098604;28;20050;-72
2022/03/20 11:09:04;;;;;;;31.35;18.35;;;9.80;85.90;;;;;;5115894;28;20035;-73
2022/03/20 11:11:33;;;;;;;29.27;19.88;;;9.90;85.80;;;;;;5115958;28;20043;-72
2022/03/20 11:13:59;;;;;;;27.30;18.65;;;9.90;84.60;;;;;;5116621;28;20089;-73
2022/03/20 11:16:28;;;;;;;27.42;17.60;;;10.00;86.00;;;;;;5117074;28;20036;-73
2022/03/20 11:18:56;;;;;;;29.08;19.90;;;10.00;85.10;;;;;;5097407;28;20395;-73
2022/03/20 11:21:24;;;;;;;24.48;17.52;;;10.10;82.90;;;;;;5116885;28;20071;-73
2022/03/20 11:23:54;;;;;;;30.67;19.08;;;10.10;82.20;;;;;;5110364;28;20061;-72
2022/03/20 11:26:21;;;;;;;27.48;18.67;;;10.20;82.70;;;;;;5099987;28;20162;-72
2022/03/20 11:28:53;;;;;;;28.98;19.40;;;10.30;82.00;;;;;;5096319;28;20093;-73
2022/03/20 11:31:20;;;;;;;27.02;19.25;;;10.40;81.00;;;;;;5096965;28;20075;-72
2022/03/20 11:33:47;;;;;;;25.90;18.13;;;10.40;81.30;;;;;;5116373;28;20044;-72
2022/03/20 11:36:13;;;;;;;26.90;18.30;;;10.50;81.30;;;;;;5116178;28;20395;-73
2022/03/20 11:38:41;;;;;;;27.48;18.23;;;10.60;80.30;;;;;;5111055;28;20390;-73
2022/03/20 11:41:10;;;;;;;23.77;18.13;;;10.60;80.40;;;;;;5097968;28;20040;-73
2022/03/20 11:43:38;;;;;;;24.63;19.02;;;10.70;79.90;;;;;;5097548;28;20052;-73
2022/03/20 11:46:44;;;;;;;29.25;19.10;;;10.70;79.00;;;;;;5096995;28;20052;-73
2022/03/20 11:49:17;;;;;;;27.35;18.63;;;10.80;78.40;;;;;;5116081;28;20059;-72
2022/03/20 11:52:03;;;;;;;25.45;17.85;;;10.90;79.10;;;;;;5097355;28;20062;-73
2022/03/20 11:54:52;;;;;;;31.65;21.08;;;11.00;78.20;;;;;;5095696;28;20048;-76
2022/03/20 11:57:29;;;;;;;24.83;17.30;;;11.10;77.30;;;;;;5090020;28;20054;-73
2022/03/20 11:59:57;;;;;;;29.27;18.70;;;11.20;77.50;;;;;;5077517;28;20079;-74
2022/03/20 12:02:35;;;;;;;23.65;18.98;;;11.20;77.20;;;;;;5097639;28;20406;-73
2022/03/20 12:05:33;;;;;;;27.60;19.65;;;11.30;75.40;;;;;;5097088;28;20052;-74
2022/03/20 12:08:44;;;;;;;27.75;18.25;;;11.40;76.80;;;;;;5083292;28;20052;-74
2022/03/20 12:11:26;;;;;;;28.52;19.35;;;11.40;75.80;;;;;;5078164;28;20422;-74
2022/03/20 12:14:22;;;;;;;28.95;18.58;;;11.50;75.90;;;;;;5092472;28;20089;-74
2022/03/20 12:16:48;;;;;;;28.02;19.13;;;11.60;75.00;;;;;;5096934;28;20509;-73
2022/03/20 12:19:15;;;;;;;28.23;19.17;;;11.70;75.90;;;;;;5097340;28;20044;-74
2022/03/20 12:22:01;;;;;;;25.70;18.58;;;11.80;76.20;;;;;;5094618;28;20149;-75
2022/03/20 12:24:38;;;;;;;33.10;19.23;;;11.90;75.10;;;;;;5077122;28;20130;-73
2022/03/20 12:27:22;;;;;;;25.58;18.90;;;11.90;74.00;;;;;;5094246;28;20047;-74
2022/03/20 12:30:09;;;;;;;27.23;20.23;;;11.90;73.00;;;;;;5077818;28;20570;-74
2022/03/20 12:32:48;;;;;;;24.75;18.50;;;12.00;75.00;;;;;;5097472;28;20052;-74
2022/03/20 12:35:23;;;;;;;31.35;18.60;;;12.10;73.10;;;;;;5095892;28;20047;-74
2022/03/20 12:37:50;;;;;;;28.45;19.02;;;12.10;74.30;;;;;;5115349;28;20122;-74
2022/03/20 12:40:28;;;;;;;31.27;20.67;;;12.20;74.20;;;;;;5113864;28;20043;-74
2022/03/20 12:43:08;;;;;;;30.27;19.38;;;12.20;73.20;;;;;;5096247;28;20044;-75
2022/03/20 12:45:39;;;;;;;26.60;18.85;;;12.10;71.00;;;;;;5114872;28;20057;-76
2022/03/20 12:48:06;;;;;;;26.25;18.15;;;12.00;73.20;;;;;;5095885;28;20040;-75
2022/03/20 12:50:35;;;;;;;27.63;19.58;;;11.90;73.40;;;;;;5076132;28;20510;-75
2022/03/20 12:53:21;;;;;;;28.35;19.30;;;11.80;72.90;;;;;;5076770;28;20399;-75
2022/03/20 12:55:56;;;;;;;27.40;20.35;;;11.70;72.80;;;;;;5089250;28;20048;-75
2022/03/20 12:58:23;;;;;;;28.85;20.23;;;11.60;72.80;;;;;;5094664;28;20067;-75
2022/03/20 13:00:49;;;;;;;26.40;18.90;;;11.60;73.40;;;;;;5093981;28;20059;-75
2022/03/20 13:03:17;;;;;;;29.70;19.83;;;11.50;73.40;;;;;;5093480;28;20048;-75
2022/03/20 13:05:53;;;;;;;32.05;20.75;;;11.50;73.10;;;;;;5094163;28;20453;-75
2022/03/20 13:08:23;;;;;;;33.28;20.02;;;11.60;73.50;;;;;;5094510;28;20080;-75
2022/03/20 13:10:54;;;;;;;26.02;19.35;;;11.60;73.10;;;;;;5073237;28;20105;-75
2022/03/20 13:13:26;;;;;;;25.63;18.40;;;11.60;72.60;;;;;;5094329;28;20051;-75
2022/03/20 13:15:51;;;;;;;29.02;20.27;;;11.50;72.50;;;;;;5093753;28;20044;-75
2022/03/20 13:18:24;;;;;;;30.50;19.63;;;11.60;73.10;;;;;;5075490;28;20131;-75
2022/03/20 13:20:49;;;;;;;27.77;19.85;;;11.60;74.00;;;;;;5075686;28;20040;-74